| time (UTC) | temp F | wind direction | speed knots | gust knots | rain 1hr in | rain 24hr in | rain mn in | humidity % | barometer mb |
| 20260508213747 | 66 | 301 | 6.1 | 13.0 | 0.00 | 0.00 | 0.00 | 37 | 1019.4 |
| 20260508213244 | 66 | 291 | 9.6 | 13.9 | 0.00 | 0.00 | 0.00 | 36 | 1019.3 |
| 20260508212741 | 64 | 297 | 8.7 | 15.6 | 0.00 | 0.00 | 0.00 | 37 | 1019.7 |
| 20260508212237 | 66 | 293 | 14.8 | 20.0 | 0.00 | 0.00 | 0.00 | 37 | 1019.5 |
| 20260508211733 | 64 | 273 | 9.6 | 14.8 | 0.00 | 0.00 | 0.00 | 38 | 1019.5 |
| 20260508211229 | 66 | 273 | 13.9 | 22.6 | 0.00 | 0.00 | 0.00 | 35 | 1019.9 |
| 20260508210727 | 67 | 273 | 8.7 | 17.4 | 0.00 | 0.00 | 0.00 | 37 | 1019.3 |
| 20260508210223 | 65 | 296 | 7.8 | 14.8 | 0.00 | 0.00 | 0.00 | 37 | 1019.4 |
| 20260508205720 | 66 | 259 | 13.0 | 18.2 | 0.00 | 0.00 | 0.00 | 37 | 1019.7 |
| 20260508205217 | 65 | 269 | 18.2 | 20.0 | 0.00 | 0.00 | 0.00 | 37 | 1019.7 |
| 20260508204713 | 65 | 276 | 10.4 | 14.8 | 0.00 | 0.00 | 0.00 | 37 | 1019.7 |
| 20260508204209 | 64 | 286 | 7.0 | 13.0 | 0.00 | 0.00 | 0.00 | 39 | 1019.4 |
| 20260508203706 | 64 | 270 | 7.0 | 13.9 | 0.00 | 0.00 | 0.00 | 39 | 1019.7 |
| 20260508203202 | 66 | 322 | 10.4 | 20.0 | 0.00 | 0.00 | 0.00 | 37 | 1019.7 |
| 20260508202658 | 66 | 280 | 8.7 | 14.8 | 0.00 | 0.00 | 0.00 | 38 | 1019.7 |
| 20260508202155 | 66 | 266 | 10.4 | 15.6 | 0.00 | 0.00 | 0.00 | 39 | 1019.8 |
| 20260508201652 | 65 | 280 | 13.0 | 20.0 | 0.00 | 0.00 | 0.00 | 36 | 1019.7 |
| 20260508201149 | 65 | 280 | 11.3 | 15.6 | 0.00 | 0.00 | 0.00 | 39 | 1019.8 |
| 20260508200646 | 66 | 273 | 10.4 | 19.1 | 0.00 | 0.00 | 0.00 | 38 | 1019.8 |
| 20260508200142 | 64 | 269 | 11.3 | 18.2 | 0.00 | 0.00 | 0.00 | 35 | 1019.5 |
| 20260508195638 | 65 | 281 | 12.2 | 19.1 | 0.00 | 0.00 | 0.00 | 38 | 1019.7 |
| 20260508195135 | 65 | 302 | 8.7 | 15.6 | 0.00 | 0.00 | 0.00 | 38 | 1019.5 |
| 20260508194631 | 65 | 279 | 14.8 | 18.2 | 0.00 | 0.00 | 0.00 | 37 | 1019.5 |
| 20260508194128 | 64 | 289 | 13.0 | 17.4 | 0.00 | 0.00 | 0.00 | 38 | 1019.8 |
| 20260508193625 | 65 | 270 | 11.3 | 13.9 | 0.00 | 0.00 | 0.00 | 37 | 1019.7 |
| 20260508193122 | 63 | 272 | 13.9 | 18.2 | 0.00 | 0.00 | 0.00 | 38 | 1019.7 |
| 20260508192618 | 64 | 276 | 7.8 | 14.8 | 0.00 | 0.00 | 0.00 | 38 | 1019.8 |
| 20260508192116 | 65 | 293 | 7.8 | 15.6 | 0.00 | 0.00 | 0.00 | 39 | 1020.0 |
| 20260508191613 | 64 | 275 | 10.4 | 22.6 | 0.00 | 0.00 | 0.00 | 35 | 1019.8 |
| 20260508191109 | 64 | 291 | 9.6 | 13.9 | 0.00 | 0.00 | 0.00 | 37 | 1019.5 |
| 20260508190607 | 64 | 279 | 10.4 | 15.6 | 0.00 | 0.00 | 0.00 | 37 | 1019.7 |
| 20260508190103 | 64 | 277 | 10.4 | 14.8 | 0.00 | 0.00 | 0.00 | 38 | 1019.7 |
| 20260508185600 | 64 | 296 | 10.4 | 18.2 | 0.00 | 0.00 | 0.00 | 40 | 1020.1 |
| 20260508185057 | 64 | 275 | 11.3 | 18.2 | 0.00 | 0.00 | 0.00 | 39 | 1019.8 |
| 20260508184555 | 65 | 282 | 9.6 | 13.9 | 0.00 | 0.00 | 0.00 | 39 | 1020.0 |
| 20260508184051 | 64 | 296 | 12.2 | 13.9 | 0.00 | 0.00 | 0.00 | 42 | 1020.0 |
| 20260508183548 | 64 | 300 | 7.0 | 15.6 | 0.00 | 0.00 | 0.00 | 42 | 1020.3 |
| 20260508183044 | 63 | 286 | 10.4 | 13.0 | 0.00 | 0.00 | 0.00 | 41 | 1020.0 |
| 20260508182541 | 63 | 309 | 11.3 | 14.8 | 0.00 | 0.00 | 0.00 | 42 | 1020.3 |
| 20260508182037 | 64 | 254 | 10.4 | 19.1 | 0.00 | 0.00 | 0.00 | 38 | 1020.1 |
| 20260508181532 | 63 | 302 | 7.0 | 12.2 | 0.00 | 0.00 | 0.00 | 43 | 1020.1 |
| 20260508181030 | 63 | 275 | 9.6 | 12.2 | 0.00 | 0.00 | 0.00 | 41 | 1020.1 |
| 20260508180527 | 62 | 264 | 13.0 | 15.6 | 0.00 | 0.00 | 0.00 | 41 | 1020.4 |
| 20260508180023 | 63 | 280 | 8.7 | 13.0 | 0.00 | 0.00 | 0.00 | 42 | 1020.3 |
| 20260508175520 | 63 | 281 | 7.8 | 13.9 | 0.00 | 0.00 | 0.00 | 42 | 1020.3 |
| 20260508175017 | 64 | 299 | 11.3 | 13.0 | 0.00 | 0.00 | 0.00 | 41 | 1020.4 |
| 20260508174514 | 64 | 276 | 8.7 | 13.9 | 0.00 | 0.00 | 0.00 | 42 | 1020.3 |
| 20260508174011 | 62 | 234 | 9.6 | 13.9 | 0.00 | 0.00 | 0.00 | 42 | 1020.1 |
| 20260508173508 | 62 | 299 | 9.6 | 14.8 | 0.00 | 0.00 | 0.00 | 41 | 1020.3 |
| 20260508173004 | 62 | 264 | 10.4 | 13.0 | 0.00 | 0.00 | 0.00 | 42 | 1020.3 |
| 20260508172502 | 62 | 282 | 13.9 | 15.6 | 0.00 | 0.00 | 0.00 | 41 | 1020.4 |
| 20260508171958 | 62 | 290 | 7.0 | 13.0 | 0.00 | 0.00 | 0.00 | 43 | 1020.4 |
| 20260508171455 | 62 | 275 | 6.1 | 13.0 | 0.00 | 0.00 | 0.00 | 43 | 1020.0 |
| 20260508170951 | 62 | 285 | 11.3 | 17.4 | 0.00 | 0.00 | 0.00 | 40 | 1020.3 |
| 20260508170448 | 63 | 284 | 7.8 | 17.4 | 0.00 | 0.00 | 0.00 | 40 | 1020.1 |
| 20260508165945 | 62 | 275 | 6.1 | 12.2 | 0.00 | 0.00 | 0.00 | 41 | 1020.0 |
| 20260508165443 | 62 | 290 | 9.6 | 12.2 | 0.00 | 0.00 | 0.00 | 41 | 1020.3 |
| 20260508164939 | 63 | 265 | 7.8 | 13.0 | 0.00 | 0.00 | 0.00 | 41 | 1020.1 |
| 20260508164436 | 63 | 253 | 3.5 | 7.8 | 0.00 | 0.00 | 0.00 | 44 | 1019.9 |
| 20260508163933 | 62 | 277 | 6.1 | 7.8 | 0.00 | 0.00 | 0.00 | 43 | 1020.1 |
| 20260508163431 | 62 | 270 | 7.0 | 9.6 | 0.00 | 0.00 | 0.00 | 41 | 1020.3 |
| 20260508162926 | 62 | 283 | 8.7 | 9.6 | 0.00 | 0.00 | 0.00 | 40 | 1020.0 |
| 20260508162424 | 62 | 281 | 7.8 | 9.6 | 0.00 | 0.00 | 0.00 | 40 | 1020.1 |
| 20260508161921 | 62 | 291 | 5.2 | 7.8 | 0.00 | 0.00 | 0.00 | 43 | 1020.1 |
| 20260508161418 | 61 | 290 | 4.3 | 7.8 | 0.00 | 0.00 | 0.00 | 43 | 1020.0 |
| 20260508160915 | 61 | 286 | 6.1 | 8.7 | 0.00 | 0.00 | 0.00 | 42 | 1020.3 |
| 20260508160414 | 61 | 303 | 5.2 | 13.9 | 0.00 | 0.00 | 0.00 | 43 | 1020.1 |
| 20260508155909 | 60 | 290 | 9.6 | 12.2 | 0.00 | 0.00 | 0.00 | 44 | 1020.0 |
| 20260508155407 | 60 | 275 | 6.1 | 9.6 | 0.00 | 0.00 | 0.00 | 44 | 1019.9 |
| 20260508154904 | 60 | 259 | 2.6 | 5.2 | 0.00 | 0.00 | 0.00 | 51 | 1020.3 |
| 20260508154401 | 59 | 260 | 0.9 | 2.6 | 0.00 | 0.00 | 0.00 | 52 | 1020.0 |
| 20260508153858 | 60 | 305 | 2.6 | 4.3 | 0.00 | 0.00 | 0.00 | 50 | 1020.3 |
| 20260508153355 | 58 | 271 | 0.0 | 0.9 | 0.00 | 0.00 | 0.00 | 56 | 1020.1 |
| 20260508152851 | 57 | 271 | 0.9 | 0.9 | 0.00 | 0.00 | 0.00 | 60 | 1020.1 |
| 20260508152348 | 56 | 266 | 0.0 | 1.7 | 0.00 | 0.00 | 0.00 | 61 | 1020.0 |
| 20260508151844 | 54 | 291 | 0.0 | 1.7 | 0.00 | 0.00 | 0.00 | 63 | 1020.0 |
| 20260508151341 | 54 | 282 | 0.0 | 0.0 | 0.00 | 0.00 | 0.00 | 62 | 1020.1 |
| 20260508150837 | 54 | 234 | 0.0 | 0.0 | 0.00 | 0.00 | 0.00 | 62 | 1019.9 |
| 20260508150334 | 54 | 272 | 0.0 | 0.0 | 0.00 | 0.00 | 0.00 | 62 | 1020.0 |
| 20260508145830 | 52 | 251 | 0.0 | 0.0 | 0.00 | 0.00 | 0.00 | 65 | 1019.9 |
| 20260508145327 | 51 | 292 | 0.0 | 0.0 | 0.00 | 0.00 | 0.00 | 64 | 1020.0 |
| 20260508144823 | 51 | 280 | 0.0 | 0.0 | 0.00 | 0.00 | 0.00 | 67 | 1020.0 |
| 20260508144321 | 51 | 280 | 0.0 | 0.0 | 0.00 | 0.00 | 0.00 | 66 | 1020.1 |
| 20260508143819 | 50 | 274 | 0.0 | 0.0 | 0.00 | 0.00 | 0.00 | 68 | 1019.9 |
| 20260508143315 | 47 | 286 | 0.0 | 0.0 | 0.00 | 0.00 | 0.00 | 71 | 1019.9 |
| 20260508142812 | 46 | 290 | 0.0 | 0.0 | 0.00 | 0.00 | 0.00 | 74 | 1019.9 |
| 20260508142309 | 45 | 276 | 0.0 | 0.0 | 0.00 | 0.00 | 0.00 | 77 | 1020.1 |
| 20260508141805 | 44 | 268 | 0.0 | 0.0 | 0.00 | 0.00 | 0.00 | 79 | 1020.0 |
| 20260508141303 | 43 | 273 | 0.0 | 0.0 | 0.00 | 0.00 | 0.00 | 79 | 1020.1 |
| 20260508140800 | 43 | 258 | 0.0 | 0.0 | 0.00 | 0.00 | 0.00 | 79 | 1019.9 |
| 20260508140257 | 43 | 258 | 0.0 | 0.0 | 0.00 | 0.00 | 0.00 | 79 | 1020.3 |
| 20260508135752 | 44 | 259 | 0.0 | 0.0 | 0.00 | 0.00 | 0.00 | 78 | 1019.9 |
| 20260508135249 | 46 | 285 | 0.0 | 0.0 | 0.00 | 0.00 | 0.00 | 75 | 1020.0 |
| 20260508134745 | 45 | 286 | 0.0 | 0.0 | 0.00 | 0.00 | 0.00 | 75 | 1020.1 |
| 20260508134242 | 44 | 293 | 0.0 | 0.0 | 0.00 | 0.00 | 0.00 | 77 | 1019.9 |
| 20260508133739 | 41 | 287 | 0.0 | 0.0 | 0.00 | 0.00 | 0.00 | 80 | 1019.7 |
| 20260508133236 | 39 | 291 | 0.0 | 0.0 | 0.00 | 0.00 | 0.00 | 83 | 1020.0 |
| 20260508132734 | 37 | 293 | 0.0 | 0.0 | 0.00 | 0.00 | 0.00 | 86 | 1019.8 |
| 20260508132231 | 36 | 294 | 0.0 | 0.0 | 0.00 | 0.00 | 0.00 | 86 | 1019.7 |
| 20260508131726 | 37 | 293 | 0.0 | 0.0 | 0.00 | 0.00 | 0.00 | 85 | 1019.8 |
| 20260508131224 | 37 | 293 | 0.0 | 0.0 | 0.00 | 0.00 | 0.00 | 85 | 1019.7 |
| 20260508130720 | 36 | 294 | 0.0 | 0.0 | 0.00 | 0.00 | 0.00 | 86 | 1019.5 |
| 20260508130217 | 36 | 293 | 0.0 | 0.0 | 0.00 | 0.00 | 0.00 | 87 | 1019.5 |
| 20260508125713 | 35 | 293 | 0.0 | 0.0 | 0.00 | 0.00 | 0.00 | 88 | 1019.5 |
| 20260508125209 | 34 | 293 | 0.0 | 0.0 | 0.00 | 0.00 | 0.00 | 88 | 1019.8 |
| 20260508124708 | 33 | 293 | 0.0 | 0.0 | 0.00 | 0.00 | 0.00 | 88 | 1019.5 |
| 20260508124204 | 33 | 294 | 0.0 | 0.0 | 0.00 | 0.00 | 0.00 | 88 | 1019.3 |
| 20260508123703 | 33 | 299 | 0.0 | 0.0 | 0.00 | 0.00 | 0.00 | 89 | 1019.2 |
| 20260508123201 | 33 | 314 | 0.0 | 0.0 | 0.00 | 0.00 | 0.00 | 89 | 1019.2 |
| 20260508122656 | 32 | 293 | 0.0 | 0.0 | 0.00 | 0.00 | 0.00 | 89 | 1019.4 |
| 20260508122153 | 33 | 298 | 0.0 | 0.0 | 0.00 | 0.00 | 0.00 | 89 | 1019.3 |
| 20260508121651 | 33 | 302 | 0.0 | 0.0 | 0.00 | 0.00 | 0.00 | 89 | 1019.3 |
| 20260508121149 | 33 | 299 | 0.0 | 0.0 | 0.00 | 0.00 | 0.00 | 89 | 1019.3 |
| 20260508120646 | 33 | 305 | 0.0 | 0.0 | 0.00 | 0.00 | 0.00 | 89 | 1019.1 |
| 20260508120144 | 33 | 318 | 0.0 | 0.0 | 0.00 | 0.00 | 0.00 | 89 | 1019.3 |
| 20260508115642 | 33 | 294 | 0.0 | 0.0 | 0.00 | 0.00 | 0.00 | 89 | 1019.3 |
| 20260508115138 | 33 | 272 | 0.0 | 0.0 | 0.00 | 0.00 | 0.00 | 88 | 1019.3 |
| 20260508114635 | 33 | 281 | 0.0 | 0.0 | 0.00 | 0.00 | 0.00 | 88 | 1019.1 |
| 20260508114131 | 33 | 299 | 0.0 | 0.0 | 0.00 | 0.00 | 0.00 | 88 | 1019.2 |
| 20260508113629 | 33 | 304 | 0.0 | 0.0 | 0.00 | 0.00 | 0.00 | 88 | 1018.9 |
| 20260508113127 | 34 | 293 | 0.0 | 0.0 | 0.00 | 0.00 | 0.00 | 87 | 1019.1 |
| 20260508112623 | 34 | 293 | 0.0 | 0.0 | 0.00 | 0.00 | 0.00 | 87 | 1019.1 |
| 20260508112120 | 34 | 297 | 0.0 | 0.0 | 0.00 | 0.00 | 0.00 | 87 | 1019.4 |
| 20260508111616 | 34 | 303 | 0.0 | 0.0 | 0.00 | 0.00 | 0.00 | 87 | 1019.2 |
| 20260508111114 | 34 | 295 | 0.0 | 0.0 | 0.00 | 0.00 | 0.00 | 87 | 1018.8 |
| 20260508110612 | 34 | 295 | 0.0 | 0.0 | 0.00 | 0.00 | 0.00 | 87 | 1018.9 |
| 20260508110107 | 34 | 296 | 0.0 | 0.0 | 0.00 | 0.00 | 0.00 | 87 | 1019.1 |
| 20260508105602 | 34 | 297 | 0.0 | 0.0 | 0.00 | 0.00 | 0.00 | 87 | 1018.9 |
| 20260508105100 | 34 | 312 | 0.0 | 0.0 | 0.00 | 0.00 | 0.00 | 87 | 1019.2 |
| 20260508104557 | 34 | 292 | 0.0 | 0.0 | 0.00 | 0.00 | 0.00 | 87 | 1018.9 |
| 20260508104054 | 34 | 292 | 0.0 | 0.0 | 0.00 | 0.00 | 0.00 | 87 | 1019.1 |
| 20260508103551 | 34 | 291 | 0.0 | 0.0 | 0.00 | 0.00 | 0.00 | 86 | 1018.8 |
| 20260508103048 | 34 | 282 | 0.0 | 0.0 | 0.00 | 0.00 | 0.00 | 86 | 1018.9 |
| 20260508102546 | 34 | 288 | 0.0 | 0.0 | 0.00 | 0.00 | 0.00 | 85 | 1018.4 |
| 20260508102043 | 35 | 288 | 0.0 | 0.0 | 0.00 | 0.00 | 0.00 | 85 | 1018.9 |
| 20260508101541 | 34 | 300 | 0.0 | 0.0 | 0.00 | 0.00 | 0.00 | 85 | 1018.8 |
| 20260508101037 | 35 | 278 | 0.0 | 0.0 | 0.00 | 0.00 | 0.00 | 85 | 1018.7 |
| 20260508100536 | 35 | 303 | 0.0 | 0.0 | 0.00 | 0.00 | 0.00 | 84 | 1018.7 |
| 20260508100032 | 35 | 293 | 0.0 | 0.0 | 0.00 | 0.00 | 0.00 | 84 | 1018.7 |
| 20260508095529 | 35 | 303 | 0.0 | 0.0 | 0.00 | 0.00 | 0.00 | 84 | 1018.8 |
| 20260508095026 | 36 | 296 | 0.0 | 0.0 | 0.00 | 0.00 | 0.00 | 84 | 1018.6 |
| 20260508094523 | 36 | 275 | 0.0 | 0.0 | 0.00 | 0.00 | 0.00 | 85 | 1018.7 |
| 20260508094020 | 35 | 288 | 0.0 | 0.0 | 0.00 | 0.00 | 0.00 | 86 | 1018.6 |
| 20260508093517 | 35 | 300 | 0.0 | 0.0 | 0.00 | 0.00 | 0.00 | 85 | 1018.7 |
| 20260508093015 | 35 | 304 | 0.0 | 0.0 | 0.00 | 0.00 | 0.00 | 85 | 1018.6 |
| 20260508092512 | 35 | 297 | 0.0 | 0.0 | 0.00 | 0.00 | 0.00 | 84 | 1018.4 |
| 20260508092011 | 36 | 297 | 0.0 | 0.0 | 0.00 | 0.00 | 0.00 | 83 | 1018.7 |
| 20260508091507 | 36 | 299 | 0.0 | 0.0 | 0.00 | 0.00 | 0.00 | 83 | 1018.7 |
| 20260508090959 | 35 | 297 | 0.0 | 0.0 | 0.00 | 0.00 | 0.00 | 84 | 1018.4 |
| 20260508090458 | 36 | 303 | 0.0 | 0.0 | 0.00 | 0.00 | 0.00 | 84 | 1018.7 |
| 20260508085953 | 35 | 293 | 0.0 | 0.0 | 0.00 | 0.00 | 0.00 | 85 | 1018.8 |
| 20260508085450 | 35 | 303 | 0.0 | 0.0 | 0.00 | 0.00 | 0.00 | 85 | 1018.7 |
| 20260508084947 | 35 | 295 | 0.0 | 0.0 | 0.00 | 0.00 | 0.00 | 85 | 1018.6 |
| 20260508084444 | 35 | 298 | 0.0 | 0.0 | 0.00 | 0.00 | 0.00 | 85 | 1018.7 |
| 20260508083942 | 35 | 296 | 0.0 | 0.0 | 0.00 | 0.00 | 0.00 | 84 | 1018.7 |
| 20260508083438 | 36 | 292 | 0.0 | 0.0 | 0.00 | 0.00 | 0.00 | 83 | 1018.7 |
| 20260508082938 | 37 | 288 | 0.0 | 0.0 | 0.00 | 0.00 | 0.00 | 82 | 1018.8 |
| 20260508082436 | 37 | 288 | 0.0 | 0.0 | 0.00 | 0.00 | 0.00 | 81 | 1018.6 |
| 20260508081934 | 37 | 288 | 0.0 | 0.0 | 0.00 | 0.00 | 0.00 | 80 | 1018.8 |
| 20260508081430 | 38 | 285 | 0.0 | 0.0 | 0.00 | 0.00 | 0.00 | 80 | 1018.7 |
| 20260508080926 | 38 | 280 | 0.0 | 0.0 | 0.00 | 0.00 | 0.00 | 81 | 1018.7 |
| 20260508080425 | 37 | 279 | 0.0 | 0.9 | 0.00 | 0.00 | 0.00 | 81 | 1019.1 |
| 20260508075921 | 37 | 334 | 0.9 | 1.7 | 0.00 | 0.00 | 0.00 | 81 | 1018.6 |
| 20260508075419 | 38 | 302 | 0.0 | 0.9 | 0.00 | 0.00 | 0.00 | 81 | 1018.8 |
| 20260508074916 | 37 | 301 | 1.7 | 4.3 | 0.00 | 0.00 | 0.00 | 82 | 1018.8 |
| 20260508074413 | 37 | 316 | 1.7 | 1.7 | 0.00 | 0.00 | 0.00 | 82 | 1018.7 |
| 20260508073910 | 37 | 312 | 0.0 | 0.0 | 0.00 | 0.00 | 0.00 | 81 | 1018.7 |
| 20260508073408 | 38 | 317 | 0.0 | 0.0 | 0.00 | 0.00 | 0.00 | 80 | 1018.9 |
| 20260508072904 | 38 | 316 | 0.0 | 0.0 | 0.00 | 0.00 | 0.00 | 80 | 1018.7 |
| 20260508072400 | 38 | 298 | 0.0 | 0.9 | 0.00 | 0.00 | 0.00 | 80 | 1018.6 |
| 20260508071858 | 38 | 300 | 0.0 | 0.0 | 0.00 | 0.00 | 0.00 | 80 | 1018.8 |
| 20260508071356 | 38 | 305 | 0.0 | 0.9 | 0.00 | 0.00 | 0.00 | 79 | 1019.1 |
| 20260508070853 | 37 | 343 | 2.6 | 2.6 | 0.00 | 0.00 | 0.00 | 80 | 1018.9 |
| 20260508070351 | 37 | 299 | 0.0 | 0.0 | 0.00 | 0.00 | 0.00 | 80 | 1018.8 |
| 20260508065849 | 38 | 299 | 0.0 | 0.0 | 0.00 | 0.00 | 0.00 | 79 | 1018.8 |
| 20260508065347 | 38 | 298 | 0.0 | 0.0 | 0.00 | 0.00 | 0.00 | 79 | 1018.8 |
| 20260508064845 | 38 | 298 | 0.0 | 0.0 | 0.00 | 0.00 | 0.00 | 79 | 1018.7 |
| 20260508064342 | 39 | 297 | 0.0 | 0.0 | 0.00 | 0.00 | 0.00 | 78 | 1018.7 |
| 20260508063839 | 39 | 295 | 0.0 | 0.0 | 0.00 | 0.00 | 0.00 | 78 | 1018.6 |
| 20260508063337 | 39 | 299 | 0.0 | 0.0 | 0.00 | 0.00 | 0.00 | 78 | 1018.9 |
| 20260508062828 | 39 | 299 | 0.0 | 0.0 | 0.00 | 0.00 | 0.00 | 78 | 1018.8 |
| 20260508062326 | 39 | 300 | 0.0 | 0.0 | 0.00 | 0.00 | 0.00 | 78 | 1018.9 |
| 20260508061823 | 39 | 300 | 0.0 | 0.0 | 0.00 | 0.00 | 0.00 | 77 | 1018.7 |
| 20260508061320 | 40 | 307 | 0.0 | 0.0 | 0.00 | 0.00 | 0.00 | 76 | 1018.6 |
| 20260508060816 | 41 | 280 | 0.0 | 0.0 | 0.00 | 0.00 | 0.00 | 75 | 1018.6 |
| 20260508060314 | 40 | 280 | 0.0 | 0.0 | 0.00 | 0.00 | 0.00 | 76 | 1018.4 |
| 20260508055809 | 40 | 295 | 0.0 | 0.0 | 0.00 | 0.00 | 0.00 | 75 | 1018.6 |
| 20260508055307 | 40 | 296 | 0.0 | 0.0 | 0.00 | 0.00 | 0.00 | 75 | 1018.6 |
| 20260508054803 | 41 | 287 | 0.0 | 0.0 | 0.00 | 0.00 | 0.00 | 75 | 1018.4 |
| 20260508054301 | 41 | 275 | 0.0 | 0.0 | 0.00 | 0.00 | 0.00 | 74 | 1018.6 |
| 20260508053757 | 41 | 277 | 0.0 | 0.0 | 0.00 | 0.00 | 0.00 | 74 | 1018.3 |
| 20260508053255 | 41 | 294 | 0.0 | 0.0 | 0.00 | 0.00 | 0.00 | 73 | 1018.3 |
| 20260508052752 | 41 | 299 | 0.0 | 0.0 | 0.00 | 0.00 | 0.00 | 73 | 1018.3 |
| 20260508052249 | 42 | 299 | 0.0 | 0.0 | 0.00 | 0.00 | 0.00 | 71 | 1018.4 |
| 20260508051745 | 43 | 316 | 0.0 | 0.0 | 0.00 | 0.00 | 0.00 | 70 | 1018.3 |
| 20260508051240 | 43 | 295 | 0.0 | 0.0 | 0.00 | 0.00 | 0.00 | 72 | 1018.3 |
| 20260508050737 | 43 | 297 | 0.0 | 0.0 | 0.00 | 0.00 | 0.00 | 70 | 1018.3 |
| 20260508050235 | 43 | 295 | 0.0 | 0.0 | 0.00 | 0.00 | 0.00 | 70 | 1018.4 |
| 20260508045730 | 44 | 281 | 0.0 | 0.0 | 0.00 | 0.00 | 0.00 | 70 | 1018.4 |
| 20260508045228 | 44 | 277 | 0.0 | 0.0 | 0.00 | 0.00 | 0.00 | 69 | 1018.4 |
| 20260508044725 | 45 | 276 | 0.0 | 0.0 | 0.00 | 0.00 | 0.00 | 68 | 1018.7 |
| 20260508044222 | 45 | 272 | 0.0 | 0.0 | 0.00 | 0.00 | 0.00 | 68 | 1018.6 |
| 20260508043718 | 44 | 259 | 0.0 | 0.0 | 0.00 | 0.00 | 0.00 | 69 | 1018.4 |
| 20260508043216 | 43 | 285 | 0.0 | 0.0 | 0.00 | 0.00 | 0.00 | 69 | 1018.6 |
| 20260508042712 | 44 | 297 | 0.0 | 0.0 | 0.00 | 0.00 | 0.00 | 69 | 1018.4 |
| 20260508042210 | 44 | 298 | 0.0 | 0.0 | 0.00 | 0.00 | 0.00 | 69 | 1018.2 |
| 20260508041706 | 44 | 298 | 0.0 | 0.0 | 0.00 | 0.00 | 0.00 | 68 | 1018.3 |
| 20260508041203 | 44 | 303 | 0.0 | 0.0 | 0.00 | 0.00 | 0.00 | 68 | 1018.6 |
| 20260508040659 | 46 | 303 | 0.0 | 0.0 | 0.00 | 0.00 | 0.00 | 66 | 1018.4 |
| 20260508040157 | 46 | 299 | 0.0 | 0.0 | 0.00 | 0.00 | 0.00 | 66 | 1018.4 |
| 20260508035654 | 48 | 274 | 0.0 | 0.0 | 0.00 | 0.00 | 0.00 | 63 | 1018.4 |
| 20260508035151 | 48 | 286 | 0.0 | 0.0 | 0.00 | 0.00 | 0.00 | 62 | 1018.1 |
| 20260508034648 | 46 | 303 | 0.0 | 0.0 | 0.00 | 0.00 | 0.00 | 64 | 1018.2 |
| 20260508034145 | 47 | 303 | 0.0 | 0.0 | 0.00 | 0.00 | 0.00 | 64 | 1018.0 |
| 20260508033642 | 48 | 303 | 0.0 | 0.0 | 0.00 | 0.00 | 0.00 | 62 | 1018.0 |
| 20260508033141 | 47 | 309 | 0.0 | 0.0 | 0.00 | 0.00 | 0.00 | 63 | 1018.1 |
| 20260508032637 | 48 | 301 | 0.0 | 0.0 | 0.00 | 0.00 | 0.00 | 63 | 1018.2 |
| 20260508032134 | 48 | 299 | 0.0 | 0.0 | 0.00 | 0.00 | 0.00 | 63 | 1018.2 |
| 20260508031631 | 49 | 302 | 0.0 | 0.0 | 0.00 | 0.00 | 0.00 | 60 | 1018.0 |
| 20260508031127 | 49 | 296 | 0.0 | 0.0 | 0.00 | 0.00 | 0.00 | 60 | 1018.1 |
| 20260508030624 | 49 | 295 | 0.0 | 0.0 | 0.00 | 0.00 | 0.00 | 60 | 1017.8 |
| 20260508030122 | 50 | 296 | 0.0 | 0.0 | 0.00 | 0.00 | 0.00 | 59 | 1018.1 |
| 20260508025618 | 51 | 289 | 0.0 | 0.0 | 0.00 | 0.00 | 0.00 | 58 | 1018.1 |
| 20260508025115 | 51 | 296 | 0.0 | 0.0 | 0.00 | 0.00 | 0.00 | 56 | 1017.8 |
| 20260508024610 | 52 | 296 | 0.9 | 0.9 | 0.00 | 0.00 | 0.00 | 55 | 1017.8 |
| 20260508024108 | 53 | 296 | 0.0 | 0.0 | 0.00 | 0.00 | 0.00 | 55 | 1017.7 |
| 20260508023604 | 55 | 296 | 0.0 | 0.0 | 0.00 | 0.00 | 0.00 | 52 | 1017.7 |
| 20260508023102 | 56 | 294 | 0.0 | 0.0 | 0.00 | 0.00 | 0.00 | 50 | 1017.6 |
| 20260508022557 | 56 | 296 | 0.9 | 0.9 | 0.00 | 0.00 | 0.00 | 50 | 1017.7 |
| 20260508022055 | 57 | 293 | 0.0 | 0.9 | 0.00 | 0.00 | 0.00 | 49 | 1017.6 |
| 20260508021550 | 58 | 310 | 1.7 | 2.6 | 0.00 | 0.00 | 0.00 | 48 | 1017.8 |
| 20260508021047 | 59 | 309 | 2.6 | 2.6 | 0.00 | 0.00 | 0.00 | 46 | 1017.7 |
| 20260508020544 | 60 | 288 | 2.6 | 2.6 | 0.00 | 0.00 | 0.00 | 46 | 1017.5 |
| 20260508020042 | 60 | 293 | 1.7 | 5.2 | 0.00 | 0.00 | 0.00 | 46 | 1017.6 |
| 20260508015539 | 61 | 292 | 3.5 | 6.1 | 0.00 | 0.00 | 0.00 | 45 | 1017.5 |
| 20260508015036 | 61 | 279 | 6.1 | 7.8 | 0.00 | 0.00 | 0.00 | 42 | 1017.5 |
| 20260508014532 | 61 | 276 | 5.2 | 7.0 | 0.00 | 0.00 | 0.00 | 43 | 1017.5 |
| 20260508014028 | 62 | 274 | 3.5 | 7.0 | 0.00 | 0.00 | 0.00 | 43 | 1017.5 |
| 20260508013525 | 62 | 255 | 5.2 | 8.7 | 0.00 | 0.00 | 0.00 | 42 | 1017.6 |
| 20260508013022 | 62 | 270 | 4.3 | 7.0 | 0.00 | 0.00 | 0.00 | 41 | 1017.6 |
| 20260508012519 | 63 | 290 | 6.1 | 7.8 | 0.00 | 0.00 | 0.00 | 41 | 1017.6 |
| 20260508012016 | 63 | 298 | 6.1 | 7.8 | 0.00 | 0.00 | 0.00 | 41 | 1017.6 |
| 20260508011515 | 63 | 296 | 7.0 | 11.3 | 0.00 | 0.00 | 0.00 | 41 | 1017.3 |
| 20260508011012 | 63 | 273 | 7.0 | 11.3 | 0.00 | 0.00 | 0.00 | 40 | 1017.3 |
| 20260508010509 | 63 | 283 | 7.0 | 11.3 | 0.00 | 0.00 | 0.00 | 41 | 1017.3 |
| 20260508010006 | 63 | 269 | 6.1 | 8.7 | 0.00 | 0.00 | 0.00 | 41 | 1017.5 |
| 20260508005502 | 64 | 282 | 5.2 | 9.6 | 0.00 | 0.00 | 0.00 | 40 | 1017.7 |
| 20260508004959 | 64 | 288 | 4.3 | 7.0 | 0.00 | 0.00 | 0.00 | 41 | 1017.5 |
| 20260508004455 | 64 | 289 | 6.1 | 9.6 | 0.00 | 0.00 | 0.00 | 41 | 1017.5 |
| 20260508003952 | 64 | 302 | 7.0 | 8.7 | 0.00 | 0.00 | 0.00 | 39 | 1017.7 |
| 20260508003449 | 64 | 272 | 7.8 | 9.6 | 0.00 | 0.00 | 0.00 | 41 | 1017.6 |
| 20260508002946 | 64 | 318 | 5.2 | 13.9 | 0.00 | 0.00 | 0.00 | 42 | 1017.6 |
| 20260508002442 | 64 | 305 | 4.3 | 8.7 | 0.00 | 0.00 | 0.00 | 41 | 1017.7 |
| 20260508001938 | 65 | 290 | 5.2 | 8.7 | 0.00 | 0.00 | 0.00 | 41 | 1017.7 |
| 20260508001435 | 65 | 322 | 4.3 | 9.6 | 0.00 | 0.00 | 0.00 | 42 | 1018.0 |
| 20260508000931 | 64 | 304 | 4.3 | 12.2 | 0.00 | 0.00 | 0.00 | 43 | 1017.7 |
| 20260508000427 | 63 | 286 | 5.2 | 7.8 | 0.00 | 0.00 | 0.00 | 45 | 1017.8 |
| 20260507235924 | 63 | 307 | 7.0 | 8.7 | 0.00 | 0.00 | 0.00 | 44 | 1018.1 |
| 20260507235421 | 63 | 328 | 4.3 | 7.0 | 0.00 | 0.00 | 0.00 | 45 | 1017.8 |
| 20260507234919 | 62 | 290 | 6.1 | 9.6 | 0.00 | 0.00 | 0.00 | 45 | 1018.0 |
| 20260507234415 | 62 | 293 | 3.5 | 7.0 | 0.00 | 0.00 | 0.00 | 45 | 1018.1 |
| 20260507233912 | 62 | 285 | 2.6 | 4.3 | 0.00 | 0.00 | 0.00 | 44 | 1018.2 |
| 20260507233409 | 62 | 285 | 3.5 | 6.1 | 0.00 | 0.00 | 0.00 | 45 | 1018.2 |
| 20260507232907 | 62 | 277 | 4.3 | 6.1 | 0.00 | 0.00 | 0.00 | 44 | 1018.1 |
| 20260507232403 | 61 | 281 | 4.3 | 7.8 | 0.00 | 0.00 | 0.00 | 44 | 1018.3 |
| 20260507231900 | 62 | 314 | 5.2 | 7.8 | 0.00 | 0.00 | 0.00 | 45 | 1018.2 |
| 20260507231357 | 62 | 312 | 5.2 | 7.0 | 0.00 | 0.00 | 0.00 | 45 | 1018.3 |
| 20260507230853 | 62 | 322 | 4.3 | 7.8 | 0.00 | 0.00 | 0.00 | 45 | 1018.4 |
| 20260507230351 | 62 | 290 | 6.1 | 13.0 | 0.00 | 0.00 | 0.00 | 44 | 1018.6 |
| 20260507225850 | 62 | 300 | 6.1 | 7.8 | 0.00 | 0.00 | 0.00 | 45 | 1018.7 |
| 20260507225347 | 62 | 280 | 4.3 | 8.7 | 0.00 | 0.00 | 0.00 | 45 | 1018.7 |
| 20260507224843 | 62 | 322 | 10.4 | 12.2 | 0.00 | 0.00 | 0.00 | 44 | 1018.6 |
| 20260507224340 | 62 | 305 | 9.6 | 13.0 | 0.00 | 0.00 | 0.00 | 45 | 1018.8 |
| 20260507223836 | 62 | 275 | 9.6 | 13.9 | 0.00 | 0.00 | 0.00 | 44 | 1018.8 |
| 20260507223332 | 64 | 274 | 7.8 | 13.0 | 0.00 | 0.00 | 0.00 | 44 | 1018.8 |
| 20260507222830 | 63 | 311 | 13.0 | 15.6 | 0.00 | 0.00 | 0.00 | 42 | 1018.7 |
| 20260507222326 | 63 | 264 | 10.4 | 15.6 | 0.00 | 0.00 | 0.00 | 42 | 1018.9 |
| 20260507221823 | 64 | 293 | 8.7 | 11.3 | 0.00 | 0.00 | 0.00 | 42 | 1018.7 |
| 20260507221320 | 65 | 248 | 13.0 | 15.6 | 0.00 | 0.00 | 0.00 | 42 | 1018.7 |
| 20260507220815 | 65 | 265 | 9.6 | 11.3 | 0.00 | 0.00 | 0.00 | 40 | 1018.8 |
| 20260507220314 | 64 | 248 | 4.3 | 11.3 | 0.00 | 0.00 | 0.00 | 43 | 1018.8 |
| 20260507215810 | 63 | 309 | 8.7 | 12.2 | 0.00 | 0.00 | 0.00 | 41 | 1019.1 |
| 20260507215307 | 63 | 303 | 8.7 | 11.3 | 0.00 | 0.00 | 0.00 | 43 | 1019.1 |
| 20260507214804 | 63 | 302 | 7.8 | 14.8 | 0.00 | 0.00 | 0.00 | 43 | 1019.2 |
| 20260507214302 | 63 | 268 | 8.7 | 14.8 | 0.00 | 0.00 | 0.00 | 43 | 1019.1 |